Menu Close Menu
Station Historical Data
Daily Summary for May 13, 2017 Units:  Metric    English   Both
« Previous Day
Next Day »
Daily Weekly Monthly Yearly Custom
  High: Low: Average:
Temperature: 24.6 °C 16.3 °C 19.3 °C
Dew Point: 18.1 °C 11.7 °C 15.7 °C
Humidity: 94% 63% 81%
Wind Speed: 3.2km/h 0km/h 0.2km/h
Wind Gust: 8km/h - -
Wind- - South
Pressure: 1011.4 hPa 1007.3 hPa -
Precipitation: 0 mm    
Historical Graphs
 
 
Tabular Data for May 13, 2017
Time Temperature Dew Point Pressure Wind Wind Speed Wind Gust Humidity Rainfall Rate (Hourly) solar Conditions
00:00 17.7 °C 16.5 °C 1008.4 hPa Calm     93% 0 mm WeatherDisplay:10.37 W/m2 RA
00:15 17.6 °C 16.4 °C 1008.4 hPa Calm     93% 0 mm WeatherDisplay:10.37 W/m2 SCT
00:30 17.4 °C 16.2 °C 1008 hPa Calm     93% 0 mm WeatherDisplay:10.37 W/m2 SCT
00:45 17.2 °C 16.1 °C 1008 hPa Calm     93% 0 mm WeatherDisplay:10.37 W/m2 SCT
01:00 17.1 °C 15.9 °C 1008 hPa Calm     93% 0 mm WeatherDisplay:10.37 W/m2 SCT
01:15 16.9 °C 15.8 °C 1008 hPa Calm     93% 0 mm WeatherDisplay:10.37 W/m2 SCT
01:30 16.8 °C 15.7 °C 1008 hPa Calm     93% 0 mm WeatherDisplay:10.37 W/m2 SCT
01:45 16.7 °C 15.6 °C 1008 hPa Calm     93% 0 mm WeatherDisplay:10.37 W/m2 SCT
02:00 16.3 °C 15.4 °C 1008 hPa Calm     94% 0 mm WeatherDisplay:10.37 W/m2 SCT
02:15 16.3 °C 15.4 °C 1008 hPa Calm     94% 0 mm WeatherDisplay:10.37 W/m2 SCT
02:30 16.3 °C 15.4 °C 1008 hPa Calm     94% 0 mm WeatherDisplay:10.37 W/m2 SCT
02:45 16.3 °C 15.4 °C 1008.4 hPa Calm     94% 0 mm WeatherDisplay:10.37 W/m2 SCT
03:00 16.3 °C 15.4 °C 1008 hPa Calm     94% 0 mm WeatherDisplay:10.37 W/m2 SCT
03:15 16.3 °C 15.4 °C 1008 hPa Calm     94% 0 mm WeatherDisplay:10.37 W/m2 SCT
03:30 16.3 °C 15.4 °C 1008 hPa Calm     94% 0 mm WeatherDisplay:10.37 W/m2 SCT
03:45 16.3 °C 15.4 °C 1008 hPa Calm     94% 0 mm WeatherDisplay:10.37 W/m2 SCT
04:00 16.3 °C 15.4 °C 1008 hPa Calm     94% 0 mm WeatherDisplay:10.37 W/m2 SCT
04:15 16.3 °C 15.4 °C 1007.7 hPa Calm     94% 0 mm WeatherDisplay:10.37 W/m2 SCT
04:30 16.3 °C 15.4 °C 1007.7 hPa Calm     94% 0 mm WeatherDisplay:10.37 W/m2 SCT
04:45 16.3 °C 15.4 °C 1008 hPa Calm     94% 0 mm WeatherDisplay:10.37 W/m2 SCT
05:00 16.3 °C 15.4 °C 1007.7 hPa Calm     94% 0 mm WeatherDisplay:10.37 W/m2 SCT
05:15 16.3 °C 15.4 °C 1007.7 hPa Calm     94% 0 mm WeatherDisplay:10.37 W/m2 SCT
05:30 16.3 °C 15.4 °C 1007.3 hPa Calm     94% 0 mm WeatherDisplay:10.37 W/m2 SCT
05:45 16.3 °C 15.4 °C 1007.7 hPa Calm     94% 0 mm WeatherDisplay:10.37 W/m2 SCT
06:00 16.3 °C 15.4 °C 1007.7 hPa Calm     94% 0 mm WeatherDisplay:10.37 W/m2 SCT
06:15 16.3 °C 15.4 °C 1007.7 hPa Calm     94% 0 mm WeatherDisplay:10.37 W/m2 SCT
06:30 16.3 °C 15.4 °C 1007.7 hPa Calm     94% 0 mm WeatherDisplay:10.37 W/m2 SCT
06:45 16.3 °C 15.4 °C 1008 hPa Calm     94% 0 mm WeatherDisplay:10.37 W/m2 SCT
07:00 16.3 °C 15.4 °C 1008 hPa Calm     94% 0 mm WeatherDisplay:10.37 W/m2 SCT
07:15 16.3 °C 15.4 °C 1008 hPa Calm     94% 0 mm WeatherDisplay:10.37 W/m2 SCT
07:30 16.3 °C 15.4 °C 1008 hPa Calm     94% 0 mm WeatherDisplay:10.37 W/m2 SCT
07:45 16.3 °C 15.4 °C 1008.4 hPa Calm     94% 0 mm WeatherDisplay:10.37 W/m2 SCT
08:00 16.3 °C 15.4 °C 1008.4 hPa Calm     94% 0 mm WeatherDisplay:10.37 W/m2 SCT
08:30 16.3 °C 15.4 °C 1008.4 hPa Calm     94% 0 mm WeatherDisplay:10.37 W/m2 SCT
08:45 17 °C 15.8 °C 1008.4 hPa Calm     93% 0 mm WeatherDisplay:10.37 W/m2 SCT
09:00 17.2 °C 16 °C 1008.4 hPa Calm     93% 0 mm WeatherDisplay:10.37 W/m2 SCT
09:15 17.3 °C 16.1 °C 1008.4 hPa Calm     93% 0 mm WeatherDisplay:10.37 W/m2 SCT
09:30 17.5 °C 16.3 °C 1008.4 hPa Calm     93% 0 mm WeatherDisplay:10.37 W/m2 SCT
09:45 17.7 °C 16.5 °C 1008.4 hPa Calm     93% 0 mm WeatherDisplay:10.37 W/m2 SCT
10:00 18.2 °C 16.9 °C 1008.4 hPa Calm     92% 0 mm WeatherDisplay:10.37 W/m2 SCT
10:15 18.4 °C 16.6 °C 1008.4 hPa Calm   1.6 km/h 89% 0 mm WeatherDisplay:10.37 W/m2 SCT
10:30 18.8 °C 16.8 °C 1008.4 hPa Calm   1.6 km/h 88% 0 mm WeatherDisplay:10.37 W/m2 SCT
10:45 19.4 °C 16.8 °C 1008.4 hPa Calm   1.6 km/h 85% 0 mm WeatherDisplay:10.37 W/m2 SCT
11:00 20.1 °C 16.9 °C 1008.7 hPa Calm   1.6 km/h 82% 0 mm WeatherDisplay:10.37 W/m2 SCT
11:15 20.3 °C 16.7 °C 1008.7 hPa Calm   3.2 km/h 80% 0 mm WeatherDisplay:10.37 W/m2 SCT
11:30 20.7 °C 17.2 °C 1009 hPa Calm     80% 0 mm WeatherDisplay:10.37 W/m2 SCT
11:45 21.2 °C 17 °C 1009 hPa Calm   3.2 km/h 77% 0 mm WeatherDisplay:10.37 W/m2 SCT
12:00 21.1 °C 17.1 °C 1009 hPa Calm     78% 0 mm WeatherDisplay:10.37 W/m2 SCT
12:15 21.3 °C 17.6 °C 1009 hPa Calm   3.2 km/h 79% 0 mm WeatherDisplay:10.37 W/m2 SCT
12:30 21.7 °C 16.7 °C 1008.7 hPa Calm   1.6 km/h 73% 0 mm WeatherDisplay:10.37 W/m2 SCT
12:45 22.2 °C 17.3 °C 1008.7 hPa Calm   3.2 km/h 74% 0 mm WeatherDisplay:10.37 W/m2 SCT
13:00 23.7 °C 18.1 °C 1008.7 hPa Calm   3.2 km/h 71% 0 mm WeatherDisplay:10.37 W/m2 SCT
13:15 23.8 °C 16.9 °C 1008.4 hPa East 1.6 km/h 3.2 km/h 65% 0 mm WeatherDisplay:10.37 W/m2 SCT
13:30 24.6 °C 17.3 °C 1008.4 hPa Calm   1.6 km/h 64% 0 mm WeatherDisplay:10.37 W/m2 SCT
13:45 24.1 °C 16.6 °C 1008 hPa Calm   1.6 km/h 63% 0 mm WeatherDisplay:10.37 W/m2 SCT
14:00 23.9 °C 16.7 °C 1008 hPa Calm     64% 0 mm WeatherDisplay:10.37 W/m2 SCT
14:15 23.4 °C 16.9 °C 1008.4 hPa Calm   3.2 km/h 67% 0 mm WeatherDisplay:10.37 W/m2 SCT
14:30 23.3 °C 17.7 °C 1008 hPa Calm   4.8 km/h 71% 0 mm WeatherDisplay:10.37 W/m2 SCT
14:45 23.2 °C 18.1 °C 1008 hPa Calm   8 km/h 73% 0 mm WeatherDisplay:10.37 W/m2 SCT
15:00 23.6 °C 17.6 °C 1008.4 hPa SW 1.6 km/h 8 km/h 69% 0 mm WeatherDisplay:10.37 W/m2 SCT
15:15 23.7 °C 17 °C 1008.4 hPa NE 1.6 km/h 8 km/h 66% 0 mm WeatherDisplay:10.37 W/m2 SCT
15:30 22.9 °C 18 °C 1008.4 hPa Calm   4.8 km/h 74% 0 mm WeatherDisplay:10.37 W/m2 SCT
15:45 22.3 °C 17.7 °C 1008 hPa SW 1.6 km/h 4.8 km/h 75% 0 mm WeatherDisplay:10.37 W/m2 SCT
16:00 22.8 °C 17.5 °C 1007.7 hPa West 3.2 km/h 4.8 km/h 72% 0 mm WeatherDisplay:10.37 W/m2 SCT
16:15 22.9 °C 17.4 °C 1007.7 hPa South 1.6 km/h 4.8 km/h 71% 0 mm WeatherDisplay:10.37 W/m2 SCT
16:30 22.7 °C 17.4 °C 1008 hPa Calm   3.2 km/h 72% 0 mm WeatherDisplay:10.37 W/m2 SCT
16:45 23 °C 17.4 °C 1008 hPa Calm   1.6 km/h 71% 0 mm WeatherDisplay:10.37 W/m2 SCT
17:00 23.3 °C 17.8 °C 1007.7 hPa Calm   1.6 km/h 71% 0 mm WeatherDisplay:10.37 W/m2 SCT
17:15 24 °C 17.3 °C 1007.7 hPa Calm   8 km/h 66% 0 mm WeatherDisplay:10.37 W/m2 SCT
17:30 24 °C 17.2 °C 1007.7 hPa Calm   3.2 km/h 66% 0 mm WeatherDisplay:10.37 W/m2 SCT
17:45 23.3 °C 17.1 °C 1007.7 hPa Calm   4.8 km/h 68% 0 mm WeatherDisplay:10.37 W/m2 SCT
18:00 23 °C 16.3 °C 1007.7 hPa Calm   8 km/h 66% 0 mm WeatherDisplay:10.37 W/m2 SCT
18:15 23 °C 15.8 °C 1008 hPa Calm   4.8 km/h 64% 0 mm WeatherDisplay:10.37 W/m2 SCT
18:45 22.4 °C 15.1 °C 1008.4 hPa Calm   8 km/h 63% 0 mm WeatherDisplay:10.37 W/m2 SCT
19:00 22.1 °C 15.4 °C 1008.4 hPa Calm   3.2 km/h 66% 0 mm WeatherDisplay:10.37 W/m2 SCT
19:15 21.9 °C 14.5 °C 1008.4 hPa WNW 1.6 km/h 3.2 km/h 63% 0 mm WeatherDisplay:10.37 W/m2 SCT
19:30 21.7 °C 14.8 °C 1008.7 hPa Calm   3.2 km/h 65% 0 mm WeatherDisplay:10.37 W/m2 SCT
19:45 21.3 °C 14.2 °C 1009 hPa Calm   3.2 km/h 64% 0 mm WeatherDisplay:10.37 W/m2 SCT
20:00 21.2 °C 14.1 °C 1009 hPa Calm   3.2 km/h 64% 0 mm WeatherDisplay:10.37 W/m2 SCT
20:15 20.8 °C 14.2 °C 1009.4 hPa Calm   3.2 km/h 66% 0 mm WeatherDisplay:10.37 W/m2 SCT
20:30 20.3 °C 14 °C 1009.7 hPa Calm   1.6 km/h 67% 0 mm WeatherDisplay:10.37 W/m2 SCT
20:45 19.8 °C 14 °C 1010 hPa Calm     69% 0 mm WeatherDisplay:10.37 W/m2 SCT
21:00 19.3 °C 13.7 °C 1010 hPa Calm     70% 0 mm WeatherDisplay:10.37 W/m2 SCT
21:15 18.9 °C 14.2 °C 1010 hPa Calm     74% 0 mm WeatherDisplay:10.37 W/m2 SCT
21:30 18.6 °C 13.6 °C 1010.4 hPa Calm     73% 0 mm WeatherDisplay:10.37 W/m2 SCT
21:45 18.2 °C 13.5 °C 1010.4 hPa Calm     74% 0 mm WeatherDisplay:10.37 W/m2 SCT
22:00 18 °C 13.5 °C 1010.4 hPa Calm     75% 0 mm WeatherDisplay:10.37 W/m2 SCT
22:15 17.7 °C 13.1 °C 1010.7 hPa Calm     74% 0 mm WeatherDisplay:10.37 W/m2 SCT
22:30 17.6 °C 13.1 °C 1010.7 hPa Calm     75% 0 mm WeatherDisplay:10.37 W/m2 SCT
22:45 17.4 °C 12.9 °C 1010.7 hPa Calm     75% 0 mm WeatherDisplay:10.37 W/m2 SCT
23:00 17.3 °C 12.6 °C 1011.1 hPa Calm     74% 0 mm WeatherDisplay:10.37 W/m2 SCT
23:15 17.3 °C 11.8 °C 1011.1 hPa Calm   1.6 km/h 70% 0 mm WeatherDisplay:10.37 W/m2 SCT
23:30 17.1 °C 11.8 °C 1011.1 hPa Calm   1.6 km/h 71% 0 mm WeatherDisplay:10.37 W/m2 SCT
23:45 16.8 °C 11.7 °C 1011.4 hPa Calm   1.6 km/h 72% 0 mm WeatherDisplay:10.37 W/m2 SCT
Piedmont Bend
Compliments of Weather Underground - 4 mb